createdAt,value
2022-08-23T00:00:13.509Z,14.95
2022-08-23T00:02:43.326Z,13.18
2022-08-23T00:05:13.476Z,17.05
2022-08-23T00:07:46.004Z,16.52
2022-08-23T00:10:17.502Z,17.48
2022-08-23T00:12:47.381Z,16.05
2022-08-23T00:15:18.115Z,15.52
2022-08-23T00:17:46.400Z,13.57
2022-08-23T00:20:18.051Z,12.70
2022-08-23T00:22:46.316Z,11.93
2022-08-23T00:25:15.736Z,15.20
2022-08-23T00:27:45.551Z,15.45
2022-08-23T00:30:15.146Z,12.73
2022-08-23T00:32:43.798Z,13.43
2022-08-23T00:35:22.250Z,18.77
2022-08-23T00:38:33.660Z,14.95
2022-08-23T00:40:47.694Z,12.63
2022-08-23T00:43:36.737Z,16.75
2022-08-23T00:46:30.964Z,12.77
2022-08-23T00:49:01.322Z,14.13
2022-08-23T00:51:52.628Z,12.23
2022-08-23T00:54:27.020Z,11.73
2022-08-23T00:56:59.965Z,15.32
2022-08-23T00:59:29.803Z,13.65
2022-08-23T01:01:58.277Z,17.02
2022-08-23T01:04:28.468Z,15.60
2022-08-23T01:07:08.249Z,21.08
2022-08-23T01:09:41.735Z,20.55
2022-08-23T01:12:16.400Z,16.02
2022-08-23T01:14:56.214Z,18.23
2022-08-23T01:17:29.373Z,11.32
2022-08-23T01:20:00.633Z,16.63
2022-08-23T01:22:34.957Z,20.63
2022-08-23T01:25:09.166Z,20.20
2022-08-23T01:27:38.772Z,14.95
2022-08-23T01:30:10.378Z,17.10
2022-08-23T01:32:48.207Z,17.40
2022-08-23T01:35:18.331Z,19.58
2022-08-23T01:37:46.672Z,14.93
2022-08-23T01:40:16.337Z,18.55
2022-08-23T01:42:44.680Z,16.35
2022-08-23T01:45:17.011Z,18.48
2022-08-23T01:47:45.208Z,15.20
2022-08-23T01:50:14.462Z,19.67
2022-08-23T01:52:46.795Z,15.73
2022-08-23T01:55:17.386Z,21.02
2022-08-23T01:57:50.189Z,15.50
2022-08-23T02:00:19.320Z,25.90
2022-08-23T02:02:48.718Z,17.25
2022-08-23T02:05:21.412Z,17.77
2022-08-23T02:07:50.686Z,19.52
2022-08-23T02:10:21.126Z,16.52
2022-08-23T02:12:50.770Z,17.98
2022-08-23T02:15:19.404Z,21.38
2022-08-23T02:17:47.560Z,26.05
2022-08-23T02:20:15.765Z,19.70
2022-08-23T02:22:44.687Z,21.15
2022-08-23T02:25:12.910Z,21.73
2022-08-23T02:27:43.863Z,21.45
2022-08-23T02:30:13.651Z,19.73
2022-08-23T02:32:42.553Z,20.35
2022-08-23T02:35:10.868Z,23.00
2022-08-23T02:37:39.226Z,17.13
2022-08-23T02:40:08.526Z,22.10
2022-08-23T02:42:36.883Z,21.90
2022-08-23T02:45:08.495Z,26.52
2022-08-23T02:47:37.335Z,23.30
2022-08-23T02:50:05.834Z,27.90
2022-08-23T02:52:34.281Z,22.98
2022-08-23T02:55:02.497Z,21.65
2022-08-23T02:57:31.495Z,24.80
2022-08-23T02:59:59.983Z,22.88
2022-08-23T03:02:29.833Z,26.88
2022-08-23T03:04:58.592Z,27.67
2022-08-23T03:07:27.041Z,26.60
2022-08-23T03:09:55.175Z,26.20
2022-08-23T03:12:24.404Z,36.55
2022-08-23T03:14:52.777Z,36.35
2022-08-23T03:17:21.961Z,36.97
2022-08-23T03:19:54.609Z,33.45
2022-08-23T03:22:23.389Z,25.58
2022-08-23T03:24:52.645Z,27.65
2022-08-23T03:27:20.864Z,26.98
2022-08-23T03:29:48.995Z,26.92
2022-08-23T03:32:17.308Z,33.13
2022-08-23T03:34:45.437Z,24.73
2022-08-23T03:37:15.011Z,24.60
2022-08-23T03:39:43.228Z,28.25
2022-08-23T03:42:12.020Z,30.85
2022-08-23T03:44:40.331Z,34.00
2022-08-23T03:47:09.074Z,33.85
2022-08-23T03:49:37.642Z,38.42
2022-08-23T03:52:07.041Z,34.70
2022-08-23T03:54:36.763Z,36.17
2022-08-23T03:57:09.421Z,38.88
2022-08-23T03:59:40.284Z,33.42
2022-08-23T04:02:13.610Z,34.53
2022-08-23T04:04:42.271Z,31.70
2022-08-23T04:07:10.763Z,30.42
2022-08-23T04:09:40.334Z,28.75
2022-08-23T04:12:12.062Z,27.83
2022-08-23T04:14:46.820Z,27.33
2022-08-23T04:17:15.567Z,25.23
2022-08-23T04:19:44.251Z,32.65
2022-08-23T04:22:15.371Z,34.15
2022-08-23T04:24:46.234Z,35.08
2022-08-23T04:27:14.911Z,33.05
2022-08-23T04:29:43.147Z,43.78
2022-08-23T04:32:12.632Z,38.15
2022-08-23T04:34:42.445Z,39.83
2022-08-23T04:37:14.090Z,33.97
2022-08-23T04:40:01.681Z,31.13
2022-08-23T04:42:29.998Z,33.67
2022-08-23T04:44:59.477Z,35.97
2022-08-23T04:47:27.726Z,33.10
2022-08-23T04:49:55.882Z,36.25
2022-08-23T04:52:24.099Z,31.85
2022-08-23T04:54:53.791Z,33.50
2022-08-23T04:57:21.985Z,33.90
2022-08-23T04:59:50.195Z,38.60
2022-08-23T05:02:20.564Z,33.42
2022-08-23T05:04:48.794Z,26.55
2022-08-23T05:07:16.981Z,33.40
2022-08-23T05:09:45.893Z,29.65
2022-08-23T05:12:15.954Z,32.88
2022-08-23T05:14:47.788Z,28.85
2022-08-23T05:17:16.199Z,28.55
2022-08-23T05:19:47.281Z,33.50
2022-08-23T05:22:15.639Z,30.00
2022-08-23T05:24:43.942Z,29.67
2022-08-23T05:27:13.778Z,32.38
2022-08-23T05:29:43.637Z,29.67
2022-08-23T05:32:11.928Z,30.90
2022-08-23T05:34:40.252Z,33.65
2022-08-23T05:37:08.435Z,32.97
2022-08-23T05:39:37.415Z,34.88
2022-08-23T05:42:06.510Z,38.22
2022-08-23T05:44:36.213Z,31.65
2022-08-23T05:47:11.090Z,27.33
2022-08-23T05:49:40.694Z,26.77
2022-08-23T05:52:11.758Z,33.05
2022-08-23T05:54:42.074Z,23.85
2022-08-23T05:57:11.582Z,21.63
2022-08-23T05:59:41.809Z,15.73
2022-08-23T06:02:12.682Z,20.77
2022-08-23T06:04:41.468Z,16.88
2022-08-23T06:07:11.106Z,15.32
2022-08-23T06:09:39.613Z,16.38
2022-08-23T06:12:08.106Z,13.63
2022-08-23T06:14:36.300Z,17.40
2022-08-23T06:17:05.602Z,12.95
2022-08-23T06:19:35.428Z,16.45
2022-08-23T06:22:03.647Z,11.63
2022-08-23T06:24:32.326Z,12.55
2022-08-23T06:27:00.587Z,28.45
2022-08-23T06:29:28.850Z,15.77
2022-08-23T06:31:57.006Z,15.77
2022-08-23T06:34:29.327Z,10.57
2022-08-23T06:37:00.975Z,16.45
2022-08-23T06:39:33.444Z,11.45
2022-08-23T06:42:34.470Z,8.82
2022-08-23T06:44:56.547Z,14.13
2022-08-23T06:47:24.764Z,13.93
2022-08-23T06:49:57.497Z,8.88
2022-08-23T06:52:28.397Z,8.82
2022-08-23T06:54:57.796Z,11.15
2022-08-23T06:57:26.502Z,9.00
2022-08-23T06:59:55.056Z,10.52
2022-08-23T07:02:23.449Z,9.20
2022-08-23T07:04:54.200Z,11.07
2022-08-23T07:07:22.645Z,8.77
2022-08-23T07:09:52.943Z,13.23
2022-08-23T07:12:22.084Z,11.40
2022-08-23T07:14:52.147Z,13.10
2022-08-23T07:17:20.324Z,15.00
2022-08-23T07:19:48.583Z,10.38
2022-08-23T07:22:16.763Z,12.20
2022-08-23T07:24:45.043Z,10.93
2022-08-23T07:27:14.847Z,13.88
2022-08-23T07:29:43.076Z,17.58
2022-08-23T07:32:11.670Z,14.25
2022-08-23T07:34:39.853Z,12.60
2022-08-23T07:37:15.205Z,11.73
2022-08-23T07:39:44.428Z,10.77
2022-08-23T07:42:23.128Z,14.75
2022-08-23T07:44:53.512Z,16.13
2022-08-23T07:47:22.617Z,17.83
2022-08-23T07:49:51.104Z,13.82
2022-08-23T07:52:22.012Z,16.35
2022-08-23T07:54:50.193Z,12.43
2022-08-23T07:57:20.219Z,14.45
2022-08-23T07:59:49.082Z,13.82
2022-08-23T08:02:17.368Z,17.55
2022-08-23T08:04:45.649Z,31.27
2022-08-23T08:07:21.502Z,10.35
2022-08-23T08:09:49.857Z,10.30
2022-08-23T08:12:19.457Z,13.55
2022-08-23T08:14:48.811Z,14.55
2022-08-23T08:17:18.314Z,13.30
2022-08-23T08:19:46.829Z,11.18
2022-08-23T08:22:15.123Z,8.65
2022-08-23T08:24:44.384Z,9.65
2022-08-23T08:27:12.567Z,9.27
2022-08-23T08:29:43.968Z,8.02
2022-08-23T08:32:13.884Z,8.63
2022-08-23T08:34:43.052Z,9.77
2022-08-23T08:37:11.521Z,7.20
2022-08-23T08:39:45.583Z,5.45
2022-08-23T08:42:43.031Z,7.72
2022-08-23T08:45:17.162Z,8.18
2022-08-23T08:47:49.947Z,11.52
2022-08-23T08:50:24.105Z,9.40
2022-08-23T08:52:56.298Z,7.78
2022-08-23T08:55:39.933Z,12.43
2022-08-23T08:58:13.271Z,10.38
2022-08-23T09:00:43.465Z,10.95
2022-08-23T09:03:15.247Z,10.25
2022-08-23T09:05:53.266Z,9.75
2022-08-23T09:08:44.624Z,15.15
2022-08-23T09:11:22.590Z,11.40
2022-08-23T09:14:12.817Z,10.65
2022-08-23T09:16:51.637Z,8.60
2022-08-23T09:19:21.267Z,10.65
2022-08-23T09:21:58.169Z,10.93
2022-08-23T09:24:27.687Z,9.00
2022-08-23T09:26:56.333Z,9.25
2022-08-23T09:29:28.850Z,8.05
2022-08-23T09:32:02.432Z,9.00
2022-08-23T09:34:43.078Z,7.40
2022-08-23T09:37:17.777Z,12.27
2022-08-23T09:39:49.563Z,7.53
2022-08-23T09:42:30.255Z,8.60
2022-08-23T09:44:58.767Z,6.53
2022-08-23T09:47:36.769Z,7.70
2022-08-23T09:50:23.806Z,5.13
2022-08-23T09:52:57.191Z,8.48
2022-08-23T09:55:33.739Z,4.85
2022-08-23T09:58:23.991Z,6.20
2022-08-23T10:01:13.107Z,4.50
2022-08-23T10:03:43.919Z,9.32
2022-08-23T10:06:15.586Z,6.30
2022-08-23T10:08:54.428Z,5.63
2022-08-23T10:11:25.780Z,5.80
2022-08-23T10:13:54.797Z,5.45
2022-08-23T10:16:34.185Z,4.90
2022-08-23T10:19:13.429Z,5.10
2022-08-23T10:21:47.480Z,6.13
2022-08-23T10:24:22.670Z,4.38
2022-08-23T10:27:26.034Z,3.85
2022-08-23T10:30:03.239Z,5.40
2022-08-23T10:32:45.681Z,3.00
2022-08-23T10:35:29.355Z,7.43
2022-08-23T10:38:12.979Z,8.65
2022-08-23T10:40:47.097Z,4.10
2022-08-23T10:43:22.684Z,4.18
2022-08-23T10:45:51.415Z,6.05
2022-08-23T10:48:28.670Z,5.10
2022-08-23T10:51:01.969Z,5.00
2022-08-23T10:53:46.093Z,1.50
2022-08-23T10:56:19.133Z,0.82
2022-08-23T10:58:52.015Z,1.48
2022-08-23T11:01:22.505Z,2.13
2022-08-23T11:04:01.134Z,0.30
2022-08-23T11:06:45.582Z,1.73
2022-08-23T11:09:46.714Z,0.35
2022-08-23T11:12:32.008Z,0.43
2022-08-23T11:15:13.776Z,0.30
2022-08-23T11:17:56.328Z,0.75
2022-08-23T11:21:10.605Z,0.25
2022-08-23T11:24:22.377Z,0.43
2022-08-23T11:27:07.875Z,0.45
2022-08-23T11:29:41.392Z,0.30
2022-08-23T11:32:31.521Z,0.20
2022-08-23T11:35:08.958Z,0.30
2022-08-23T11:37:55.118Z,1.08
2022-08-23T11:40:57.777Z,0.43
2022-08-23T11:43:35.167Z,0.30
2022-08-23T11:46:49.364Z,1.25
2022-08-23T11:50:00.334Z,6.72
2022-08-23T11:52:48.311Z,0.40
2022-08-23T11:55:29.449Z,4.60
2022-08-23T11:58:23.192Z,0.57
2022-08-23T12:01:06.368Z,0.47
2022-08-23T12:03:53.865Z,0.63
2022-08-23T12:06:42.269Z,0.50
2022-08-23T12:09:43.607Z,0.43
2022-08-23T12:12:25.147Z,0.55
2022-08-23T12:14:56.832Z,0.30
2022-08-23T12:18:07.227Z,0.20
2022-08-23T12:20:36.463Z,1.67
2022-08-23T12:23:21.054Z,1.60
2022-08-23T12:26:01.211Z,0.47
2022-08-23T12:28:39.587Z,3.13
2022-08-23T12:31:19.445Z,1.58
2022-08-23T12:34:09.658Z,0.93
2022-08-23T12:36:45.107Z,0.30
2022-08-23T12:39:24.669Z,0.40
2022-08-23T12:41:56.590Z,0.40
2022-08-23T12:44:27.923Z,0.30
2022-08-23T12:46:56.666Z,0.82
2022-08-23T12:49:30.292Z,0.20
2022-08-23T12:52:01.479Z,3.30
2022-08-23T12:54:39.207Z,0.47
2022-08-23T12:57:11.923Z,0.30
2022-08-23T12:59:47.497Z,3.60
2022-08-23T13:02:24.068Z,0.57
2022-08-23T13:04:54.870Z,0.30
2022-08-23T13:07:26.599Z,0.30
2022-08-23T13:09:56.612Z,0.95
2022-08-23T13:12:25.169Z,4.05
2022-08-23T13:14:54.967Z,1.77
2022-08-23T13:17:33.035Z,0.30
2022-08-23T13:20:23.920Z,4.05
2022-08-23T13:23:02.862Z,1.40
2022-08-23T13:25:34.652Z,1.95
2022-08-23T13:28:05.451Z,2.72
2022-08-23T13:30:36.230Z,2.45
2022-08-23T13:33:22.120Z,2.05
2022-08-23T13:35:53.883Z,1.58
2022-08-23T13:38:30.771Z,0.35
2022-08-23T13:41:03.773Z,0.45
2022-08-23T13:43:36.430Z,1.20
2022-08-23T13:46:14.484Z,0.40
2022-08-23T13:48:48.972Z,0.45
2022-08-23T13:51:38.841Z,0.30
2022-08-23T13:54:10.689Z,0.40
2022-08-23T13:56:45.183Z,0.77
2022-08-23T13:59:21.895Z,0.63
2022-08-23T14:01:51.210Z,0.40
2022-08-23T14:04:19.372Z,0.30
2022-08-23T14:06:49.764Z,0.68
2022-08-23T14:09:18.687Z,0.90
2022-08-23T14:11:50.086Z,1.38
2022-08-23T14:14:18.338Z,0.30
2022-08-23T14:16:46.559Z,2.40
2022-08-23T14:19:16.593Z,1.13
2022-08-23T14:22:05.705Z,1.85
2022-08-23T14:24:34.053Z,6.90
2022-08-23T14:27:02.741Z,3.25
2022-08-23T14:29:31.410Z,0.30
2022-08-23T14:34:57.317Z,1.95
2022-08-23T14:40:16.355Z,0.38
2022-08-23T14:42:45.344Z,1.50
2022-08-23T14:45:16.564Z,0.60
2022-08-23T14:47:45.273Z,1.85
2022-08-23T14:50:15.770Z,3.03
2022-08-23T14:52:47.486Z,2.15
2022-08-23T14:55:16.234Z,1.77
2022-08-23T14:57:44.720Z,1.20
2022-08-23T15:00:31.597Z,1.20
2022-08-23T15:02:59.891Z,1.75
2022-08-23T15:05:28.166Z,0.30
2022-08-23T15:07:59.913Z,2.40
2022-08-23T15:13:41.614Z,0.52
2022-08-23T15:16:44.392Z,1.50
2022-08-23T15:19:13.956Z,1.38
2022-08-23T15:21:42.658Z,0.35
2022-08-23T15:24:12.319Z,7.80
2022-08-23T15:26:40.609Z,0.30
2022-08-23T15:29:09.271Z,0.20
2022-08-23T15:31:37.541Z,4.38
2022-08-23T15:34:05.928Z,3.20
2022-08-23T15:36:43.018Z,2.05
2022-08-23T15:39:14.761Z,6.60
2022-08-23T15:41:43.135Z,0.40
2022-08-23T15:44:11.502Z,1.65
2022-08-23T15:46:40.209Z,0.50
2022-08-23T15:49:14.742Z,0.98
2022-08-23T15:51:43.187Z,0.90
2022-08-23T15:54:12.451Z,0.20
2022-08-23T15:56:48.177Z,3.17
2022-08-23T15:59:19.765Z,47.80
2022-08-23T16:01:48.216Z,2.90
2022-08-23T16:04:16.578Z,0.88
2022-08-23T16:06:45.212Z,24.40
2022-08-23T16:09:20.185Z,6.10
2022-08-23T16:11:49.984Z,13.15
2022-08-23T16:14:18.464Z,1.00
2022-08-23T16:16:46.961Z,2.75
2022-08-23T16:19:16.781Z,1.02
2022-08-23T16:21:45.983Z,1.60
2022-08-23T16:24:14.293Z,3.03
2022-08-23T16:26:45.568Z,0.80
2022-08-23T16:29:17.504Z,2.92
2022-08-23T16:31:46.721Z,1.13
2022-08-23T16:34:17.146Z,1.45
2022-08-23T16:36:48.479Z,3.30
2022-08-23T16:39:19.048Z,1.77
2022-08-23T16:41:47.510Z,3.35
2022-08-23T16:44:17.132Z,1.60
2022-08-23T16:46:45.796Z,1.15
2022-08-23T16:49:15.327Z,1.10
2022-08-23T16:51:45.694Z,2.28
2022-08-23T16:54:14.270Z,2.17
2022-08-23T16:56:43.715Z,1.55
2022-08-23T16:59:13.712Z,1.60
2022-08-23T17:01:49.230Z,1.48
2022-08-23T17:04:18.487Z,3.75
2022-08-23T17:06:47.629Z,2.53
2022-08-23T17:09:16.068Z,1.90
2022-08-23T17:11:45.645Z,1.38
2022-08-23T17:14:14.504Z,1.60
2022-08-23T17:16:44.039Z,1.20
2022-08-23T17:19:15.705Z,3.10
2022-08-23T17:21:44.884Z,1.52
2022-08-23T17:24:13.140Z,4.25
2022-08-23T17:26:41.412Z,2.00
2022-08-23T17:29:10.240Z,1.80
2022-08-23T17:31:38.605Z,1.10
2022-08-23T17:34:06.958Z,3.95
2022-08-23T17:36:39.581Z,2.90
2022-08-23T17:39:11.381Z,3.75
2022-08-23T17:41:44.538Z,1.52
2022-08-23T17:44:14.074Z,0.93
2022-08-23T17:46:45.146Z,4.50
2022-08-23T17:49:14.565Z,2.97
2022-08-23T17:51:44.283Z,2.92
2022-08-23T17:54:16.069Z,0.90
2022-08-23T17:56:50.451Z,2.35
2022-08-23T17:59:20.081Z,0.90
2022-08-23T18:01:48.495Z,1.27
2022-08-23T18:04:16.965Z,1.85
2022-08-23T18:06:47.345Z,1.58
2022-08-23T18:09:16.579Z,1.73
2022-08-23T18:11:45.228Z,3.20
2022-08-23T18:14:13.431Z,4.18
2022-08-23T18:16:44.056Z,0.73
2022-08-23T18:19:14.388Z,1.42
2022-08-23T18:21:44.175Z,0.40
2022-08-23T18:24:13.913Z,1.38
2022-08-23T18:27:00.759Z,1.85
2022-08-23T18:29:29.876Z,2.95
2022-08-23T18:31:58.764Z,0.88
2022-08-23T18:34:27.849Z,2.45
2022-08-23T18:36:56.151Z,3.25
2022-08-23T18:39:31.553Z,4.43
2022-08-23T18:42:01.296Z,0.73
2022-08-23T18:44:30.192Z,2.38
2022-08-23T18:46:59.468Z,2.10
2022-08-23T18:49:27.729Z,3.92
2022-08-23T18:51:56.599Z,2.65
2022-08-23T18:54:28.088Z,1.20
2022-08-23T18:56:59.081Z,2.35
2022-08-23T18:59:27.740Z,2.00
2022-08-23T19:01:56.403Z,4.88
2022-08-23T19:04:24.884Z,5.28
2022-08-23T19:06:54.315Z,3.95
2022-08-23T19:09:23.130Z,2.67
2022-08-23T19:11:52.729Z,1.13
2022-08-23T19:14:20.951Z,2.10
2022-08-23T19:16:49.355Z,6.85
2022-08-23T19:19:18.804Z,2.90
2022-08-23T19:21:47.175Z,2.45
2022-08-23T19:24:15.460Z,1.42
2022-08-23T19:26:47.572Z,1.48
2022-08-23T19:29:18.758Z,1.48
2022-08-23T19:31:48.280Z,2.72
2022-08-23T19:34:17.385Z,2.30
2022-08-23T19:36:51.761Z,3.13
2022-08-23T19:39:27.606Z,1.85
2022-08-23T19:41:55.935Z,0.80
2022-08-23T19:44:26.026Z,1.38
2022-08-23T19:46:56.245Z,2.50
2022-08-23T19:49:24.593Z,1.98
2022-08-23T19:51:52.886Z,6.38
2022-08-23T19:54:21.317Z,2.75
2022-08-23T19:56:54.833Z,1.50
2022-08-23T19:59:26.840Z,4.20
2022-08-23T20:01:56.938Z,1.42
2022-08-23T20:04:26.427Z,1.88
2022-08-23T20:06:54.843Z,3.10
2022-08-23T20:09:24.114Z,3.20
2022-08-23T20:11:54.042Z,7.72
